sensor_id;sensor_type;location;lat;lon;timestamp;temperature;humidity
3071;DHT22;1546;47.208;9.038;2022-11-25T00:01:56;5.80;99.90
3071;DHT22;1546;47.208;9.038;2022-11-25T00:04:22;5.70;99.90
3071;DHT22;1546;47.208;9.038;2022-11-25T00:06:49;5.80;99.90
3071;DHT22;1546;47.208;9.038;2022-11-25T00:09:16;5.80;99.90
3071;DHT22;1546;47.208;9.038;2022-11-25T00:11:43;5.90;99.90
3071;DHT22;1546;47.208;9.038;2022-11-25T00:14:12;5.90;99.90
3071;DHT22;1546;47.208;9.038;2022-11-25T00:16:41;5.80;99.90
3071;DHT22;1546;47.208;9.038;2022-11-25T00:19:09;5.70;99.90
3071;DHT22;1546;47.208;9.038;2022-11-25T00:21:36;5.70;99.90
3071;DHT22;1546;47.208;9.038;2022-11-25T00:24:04;5.70;99.90
3071;DHT22;1546;47.208;9.038;2022-11-25T00:26:32;5.80;99.90
3071;DHT22;1546;47.208;9.038;2022-11-25T00:29:01;5.70;99.90
3071;DHT22;1546;47.208;9.038;2022-11-25T00:31:29;5.80;99.90
3071;DHT22;1546;47.208;9.038;2022-11-25T00:33:58;5.80;99.90
3071;DHT22;1546;47.208;9.038;2022-11-25T00:36:26;5.90;99.90
3071;DHT22;1546;47.208;9.038;2022-11-25T00:38:54;6.00;99.90
3071;DHT22;1546;47.208;9.038;2022-11-25T00:41:22;6.00;99.90
3071;DHT22;1546;47.208;9.038;2022-11-25T00:44:08;6.00;99.90
3071;DHT22;1546;47.208;9.038;2022-11-25T00:46:53;6.10;99.90
3071;DHT22;1546;47.208;9.038;2022-11-25T00:49:21;6.10;99.90
3071;DHT22;1546;47.208;9.038;2022-11-25T00:51:48;5.90;99.90
3071;DHT22;1546;47.208;9.038;2022-11-25T00:54:15;5.80;99.90
3071;DHT22;1546;47.208;9.038;2022-11-25T00:56:42;5.70;99.90
3071;DHT22;1546;47.208;9.038;2022-11-25T00:59:09;5.70;99.90
3071;DHT22;1546;47.208;9.038;2022-11-25T01:01:36;5.60;99.90
3071;DHT22;1546;47.208;9.038;2022-11-25T01:04:03;5.70;99.90
3071;DHT22;1546;47.208;9.038;2022-11-25T01:06:32;5.80;99.90
3071;DHT22;1546;47.208;9.038;2022-11-25T01:08:59;5.90;99.90
3071;DHT22;1546;47.208;9.038;2022-11-25T01:11:26;5.90;99.90
3071;DHT22;1546;47.208;9.038;2022-11-25T01:13:54;5.80;99.90
3071;DHT22;1546;47.208;9.038;2022-11-25T01:16:23;5.80;99.90
3071;DHT22;1546;47.208;9.038;2022-11-25T01:18:50;5.90;99.90
3071;DHT22;1546;47.208;9.038;2022-11-25T01:21:18;6.00;99.90
3071;DHT22;1546;47.208;9.038;2022-11-25T01:23:47;6.30;99.90
3071;DHT22;1546;47.208;9.038;2022-11-25T01:26:16;6.40;99.90
3071;DHT22;1546;47.208;9.038;2022-11-25T01:28:43;6.50;99.90
3071;DHT22;1546;47.208;9.038;2022-11-25T01:31:13;6.50;99.90
3071;DHT22;1546;47.208;9.038;2022-11-25T01:33:40;6.40;99.90
3071;DHT22;1546;47.208;9.038;2022-11-25T01:36:09;6.30;99.90
3071;DHT22;1546;47.208;9.038;2022-11-25T01:38:36;6.40;99.90
3071;DHT22;1546;47.208;9.038;2022-11-25T01:41:07;6.30;99.90
3071;DHT22;1546;47.208;9.038;2022-11-25T01:43:34;6.20;99.90
3071;DHT22;1546;47.208;9.038;2022-11-25T01:46:08;6.10;99.90
3071;DHT22;1546;47.208;9.038;2022-11-25T01:48:40;6.00;99.90
3071;DHT22;1546;47.208;9.038;2022-11-25T01:51:17;6.10;99.90
3071;DHT22;1546;47.208;9.038;2022-11-25T01:53:45;6.20;99.90
3071;DHT22;1546;47.208;9.038;2022-11-25T01:56:14;6.10;99.90
3071;DHT22;1546;47.208;9.038;2022-11-25T01:58:41;6.20;99.90
3071;DHT22;1546;47.208;9.038;2022-11-25T02:01:09;6.30;99.90
3071;DHT22;1546;47.208;9.038;2022-11-25T02:03:41;6.30;99.90
3071;DHT22;1546;47.208;9.038;2022-11-25T02:06:12;6.10;99.90
3071;DHT22;1546;47.208;9.038;2022-11-25T02:08:45;6.10;99.90
3071;DHT22;1546;47.208;9.038;2022-11-25T02:11:15;6.10;99.90
3071;DHT22;1546;47.208;9.038;2022-11-25T02:13:43;6.20;99.90
3071;DHT22;1546;47.208;9.038;2022-11-25T02:16:10;6.20;99.90
3071;DHT22;1546;47.208;9.038;2022-11-25T02:18:37;6.10;99.90
3071;DHT22;1546;47.208;9.038;2022-11-25T02:21:04;6.00;99.90
3071;DHT22;1546;47.208;9.038;2022-11-25T02:23:36;6.00;99.90
3071;DHT22;1546;47.208;9.038;2022-11-25T02:26:07;6.10;99.90
3071;DHT22;1546;47.208;9.038;2022-11-25T02:28:34;6.10;99.90
3071;DHT22;1546;47.208;9.038;2022-11-25T02:31:02;6.20;99.90
3071;DHT22;1546;47.208;9.038;2022-11-25T02:33:29;6.30;99.90
3071;DHT22;1546;47.208;9.038;2022-11-25T02:35:58;6.30;99.90
3071;DHT22;1546;47.208;9.038;2022-11-25T02:38:34;6.30;99.90
3071;DHT22;1546;47.208;9.038;2022-11-25T02:41:07;6.30;99.90
3071;DHT22;1546;47.208;9.038;2022-11-25T02:43:35;6.20;99.90
3071;DHT22;1546;47.208;9.038;2022-11-25T02:46:04;6.20;99.90
3071;DHT22;1546;47.208;9.038;2022-11-25T02:48:35;6.20;99.90
3071;DHT22;1546;47.208;9.038;2022-11-25T02:51:02;6.00;99.90
3071;DHT22;1546;47.208;9.038;2022-11-25T02:53:29;6.00;99.90
3071;DHT22;1546;47.208;9.038;2022-11-25T02:55:57;6.00;99.90
3071;DHT22;1546;47.208;9.038;2022-11-25T02:58:25;5.90;99.90
3071;DHT22;1546;47.208;9.038;2022-11-25T03:00:53;6.00;99.90
3071;DHT22;1546;47.208;9.038;2022-11-25T03:03:20;6.10;99.90
3071;DHT22;1546;47.208;9.038;2022-11-25T03:05:47;6.20;99.90
3071;DHT22;1546;47.208;9.038;2022-11-25T03:08:14;6.20;99.90
3071;DHT22;1546;47.208;9.038;2022-11-25T03:10:41;6.30;99.90
3071;DHT22;1546;47.208;9.038;2022-11-25T03:13:09;6.20;99.90
3071;DHT22;1546;47.208;9.038;2022-11-25T03:15:37;6.10;99.90
3071;DHT22;1546;47.208;9.038;2022-11-25T03:18:05;6.20;99.90
3071;DHT22;1546;47.208;9.038;2022-11-25T03:20:33;6.20;99.90
3071;DHT22;1546;47.208;9.038;2022-11-25T03:23:01;6.20;99.90
3071;DHT22;1546;47.208;9.038;2022-11-25T03:25:27;6.20;99.90
3071;DHT22;1546;47.208;9.038;2022-11-25T03:27:54;6.30;99.90
3071;DHT22;1546;47.208;9.038;2022-11-25T03:30:23;6.40;99.90
3071;DHT22;1546;47.208;9.038;2022-11-25T03:32:51;6.40;99.90
3071;DHT22;1546;47.208;9.038;2022-11-25T03:35:18;6.30;99.90
3071;DHT22;1546;47.208;9.038;2022-11-25T03:37:45;6.20;99.90
3071;DHT22;1546;47.208;9.038;2022-11-25T03:40:14;6.10;99.90
3071;DHT22;1546;47.208;9.038;2022-11-25T03:42:41;6.00;99.90
3071;DHT22;1546;47.208;9.038;2022-11-25T03:45:10;5.90;99.90
3071;DHT22;1546;47.208;9.038;2022-11-25T03:47:38;5.90;99.90
3071;DHT22;1546;47.208;9.038;2022-11-25T03:50:08;6.10;99.90
3071;DHT22;1546;47.208;9.038;2022-11-25T03:52:36;6.10;99.90
3071;DHT22;1546;47.208;9.038;2022-11-25T03:55:03;6.00;99.90
3071;DHT22;1546;47.208;9.038;2022-11-25T03:57:30;6.10;99.90
3071;DHT22;1546;47.208;9.038;2022-11-25T03:59:57;6.20;99.90
3071;DHT22;1546;47.208;9.038;2022-11-25T04:02:24;6.20;99.90
3071;DHT22;1546;47.208;9.038;2022-11-25T04:04:51;5.90;99.90
3071;DHT22;1546;47.208;9.038;2022-11-25T04:07:19;5.70;99.90
3071;DHT22;1546;47.208;9.038;2022-11-25T04:09:46;5.70;99.90
3071;DHT22;1546;47.208;9.038;2022-11-25T04:12:13;5.80;99.90
3071;DHT22;1546;47.208;9.038;2022-11-25T04:14:57;6.00;99.90
3071;DHT22;1546;47.208;9.038;2022-11-25T04:17:24;6.10;99.90
3071;DHT22;1546;47.208;9.038;2022-11-25T04:19:51;6.00;99.90
3071;DHT22;1546;47.208;9.038;2022-11-25T04:22:19;5.90;99.90
3071;DHT22;1546;47.208;9.038;2022-11-25T04:24:46;5.80;99.90
3071;DHT22;1546;47.208;9.038;2022-11-25T04:27:13;5.90;99.90
3071;DHT22;1546;47.208;9.038;2022-11-25T04:29:39;5.80;99.90
3071;DHT22;1546;47.208;9.038;2022-11-25T04:32:06;6.00;99.90
3071;DHT22;1546;47.208;9.038;2022-11-25T04:34:33;5.90;99.90
3071;DHT22;1546;47.208;9.038;2022-11-25T04:37:00;6.00;99.90
3071;DHT22;1546;47.208;9.038;2022-11-25T04:39:28;6.00;99.90
3071;DHT22;1546;47.208;9.038;2022-11-25T04:41:55;6.20;99.90
3071;DHT22;1546;47.208;9.038;2022-11-25T04:44:42;6.20;99.90
3071;DHT22;1546;47.208;9.038;2022-11-25T04:47:08;6.10;99.90
3071;DHT22;1546;47.208;9.038;2022-11-25T04:49:35;5.90;99.90
3071;DHT22;1546;47.208;9.038;2022-11-25T04:52:02;6.10;99.90
3071;DHT22;1546;47.208;9.038;2022-11-25T04:54:30;6.10;99.90
3071;DHT22;1546;47.208;9.038;2022-11-25T04:56:57;6.50;99.90
3071;DHT22;1546;47.208;9.038;2022-11-25T04:59:24;6.30;99.90
3071;DHT22;1546;47.208;9.038;2022-11-25T05:02:08;6.20;99.90
3071;DHT22;1546;47.208;9.038;2022-11-25T05:04:37;6.20;99.90
3071;DHT22;1546;47.208;9.038;2022-11-25T05:07:04;6.20;99.90
3071;DHT22;1546;47.208;9.038;2022-11-25T05:09:32;6.20;99.90
3071;DHT22;1546;47.208;9.038;2022-11-25T05:11:59;6.10;99.90
3071;DHT22;1546;47.208;9.038;2022-11-25T05:14:26;6.00;99.90
3071;DHT22;1546;47.208;9.038;2022-11-25T05:16:53;6.00;99.90
3071;DHT22;1546;47.208;9.038;2022-11-25T05:19:20;6.20;99.90
3071;DHT22;1546;47.208;9.038;2022-11-25T05:21:46;6.10;99.90
3071;DHT22;1546;47.208;9.038;2022-11-25T05:24:13;6.10;99.90
3071;DHT22;1546;47.208;9.038;2022-11-25T05:26:41;6.20;99.90
3071;DHT22;1546;47.208;9.038;2022-11-25T05:29:08;6.20;99.90
3071;DHT22;1546;47.208;9.038;2022-11-25T05:31:35;6.00;99.90
3071;DHT22;1546;47.208;9.038;2022-11-25T05:34:02;5.90;99.90
3071;DHT22;1546;47.208;9.038;2022-11-25T05:36:30;5.80;99.90
3071;DHT22;1546;47.208;9.038;2022-11-25T05:38:57;5.80;99.90
3071;DHT22;1546;47.208;9.038;2022-11-25T05:41:25;5.80;99.90
3071;DHT22;1546;47.208;9.038;2022-11-25T05:43:53;5.80;99.90
3071;DHT22;1546;47.208;9.038;2022-11-25T05:46:21;5.80;99.90
3071;DHT22;1546;47.208;9.038;2022-11-25T05:48:52;5.80;99.90
3071;DHT22;1546;47.208;9.038;2022-11-25T05:51:19;5.90;99.90
3071;DHT22;1546;47.208;9.038;2022-11-25T05:53:45;5.80;99.90
3071;DHT22;1546;47.208;9.038;2022-11-25T05:56:12;6.00;99.90
3071;DHT22;1546;47.208;9.038;2022-11-25T05:58:39;6.10;99.90
3071;DHT22;1546;47.208;9.038;2022-11-25T06:01:09;6.10;99.90
3071;DHT22;1546;47.208;9.038;2022-11-25T06:03:37;6.10;99.90
3071;DHT22;1546;47.208;9.038;2022-11-25T06:06:05;6.20;99.90
3071;DHT22;1546;47.208;9.038;2022-11-25T06:08:32;6.30;99.90
3071;DHT22;1546;47.208;9.038;2022-11-25T06:11:02;6.30;99.90
3071;DHT22;1546;47.208;9.038;2022-11-25T06:13:29;6.30;99.90
3071;DHT22;1546;47.208;9.038;2022-11-25T06:15:56;6.30;99.90
3071;DHT22;1546;47.208;9.038;2022-11-25T06:18:24;6.40;99.90
3071;DHT22;1546;47.208;9.038;2022-11-25T06:20:55;6.50;99.90
3071;DHT22;1546;47.208;9.038;2022-11-25T06:23:23;6.50;99.90
3071;DHT22;1546;47.208;9.038;2022-11-25T06:25:49;6.50;99.90
3071;DHT22;1546;47.208;9.038;2022-11-25T06:28:17;7.40;99.90
3071;DHT22;1546;47.208;9.038;2022-11-25T06:30:44;6.70;99.90
3071;DHT22;1546;47.208;9.038;2022-11-25T06:33:10;6.70;99.90
3071;DHT22;1546;47.208;9.038;2022-11-25T06:35:39;6.70;99.90
3071;DHT22;1546;47.208;9.038;2022-11-25T06:38:05;6.60;99.90
3071;DHT22;1546;47.208;9.038;2022-11-25T06:40:32;6.70;99.90
3071;DHT22;1546;47.208;9.038;2022-11-25T06:42:59;6.50;99.90
3071;DHT22;1546;47.208;9.038;2022-11-25T06:45:26;6.60;99.90
3071;DHT22;1546;47.208;9.038;2022-11-25T06:47:52;6.60;99.90
3071;DHT22;1546;47.208;9.038;2022-11-25T06:50:19;6.60;99.90
3071;DHT22;1546;47.208;9.038;2022-11-25T06:52:47;6.50;99.90
3071;DHT22;1546;47.208;9.038;2022-11-25T06:55:14;6.60;99.90
3071;DHT22;1546;47.208;9.038;2022-11-25T06:57:41;7.30;99.90
3071;DHT22;1546;47.208;9.038;2022-11-25T07:00:09;6.80;99.90
3071;DHT22;1546;47.208;9.038;2022-11-25T07:05:03;6.70;99.90
3071;DHT22;1546;47.208;9.038;2022-11-25T07:07:30;6.70;99.90
3071;DHT22;1546;47.208;9.038;2022-11-25T07:09:58;6.80;99.90
3071;DHT22;1546;47.208;9.038;2022-11-25T07:12:25;6.90;99.90
3071;DHT22;1546;47.208;9.038;2022-11-25T07:14:52;7.20;99.90
3071;DHT22;1546;47.208;9.038;2022-11-25T07:17:18;7.30;99.90
3071;DHT22;1546;47.208;9.038;2022-11-25T07:19:45;7.30;99.90
3071;DHT22;1546;47.208;9.038;2022-11-25T07:22:12;7.30;99.90
3071;DHT22;1546;47.208;9.038;2022-11-25T07:24:39;7.20;99.90
3071;DHT22;1546;47.208;9.038;2022-11-25T07:27:07;7.20;99.90
3071;DHT22;1546;47.208;9.038;2022-11-25T07:29:34;7.10;99.90
3071;DHT22;1546;47.208;9.038;2022-11-25T07:32:01;7.20;99.90
3071;DHT22;1546;47.208;9.038;2022-11-25T07:34:28;7.30;99.90
3071;DHT22;1546;47.208;9.038;2022-11-25T07:36:55;7.40;99.90
3071;DHT22;1546;47.208;9.038;2022-11-25T07:39:22;7.40;99.90
3071;DHT22;1546;47.208;9.038;2022-11-25T07:41:49;7.50;99.90
3071;DHT22;1546;47.208;9.038;2022-11-25T07:44:18;7.40;99.90
3071;DHT22;1546;47.208;9.038;2022-11-25T07:46:46;7.00;99.90
3071;DHT22;1546;47.208;9.038;2022-11-25T07:49:15;7.00;99.90
3071;DHT22;1546;47.208;9.038;2022-11-25T07:51:46;7.40;99.90
3071;DHT22;1546;47.208;9.038;2022-11-25T07:54:13;7.40;99.90
3071;DHT22;1546;47.208;9.038;2022-11-25T07:56:41;7.30;99.90
3071;DHT22;1546;47.208;9.038;2022-11-25T07:59:11;7.30;99.90
3071;DHT22;1546;47.208;9.038;2022-11-25T08:01:40;7.50;99.90
3071;DHT22;1546;47.208;9.038;2022-11-25T08:04:08;7.60;99.90
3071;DHT22;1546;47.208;9.038;2022-11-25T08:06:38;7.70;99.90
3071;DHT22;1546;47.208;9.038;2022-11-25T08:09:07;7.80;99.90
3071;DHT22;1546;47.208;9.038;2022-11-25T08:11:35;7.90;99.90
3071;DHT22;1546;47.208;9.038;2022-11-25T08:14:01;7.80;99.90
3071;DHT22;1546;47.208;9.038;2022-11-25T08:16:29;7.70;99.90
3071;DHT22;1546;47.208;9.038;2022-11-25T08:18:58;7.80;99.90
3071;DHT22;1546;47.208;9.038;2022-11-25T08:21:26;8.00;99.90
3071;DHT22;1546;47.208;9.038;2022-11-25T08:23:53;8.10;99.90
3071;DHT22;1546;47.208;9.038;2022-11-25T08:26:22;8.20;99.90
3071;DHT22;1546;47.208;9.038;2022-11-25T08:28:50;8.40;99.90
3071;DHT22;1546;47.208;9.038;2022-11-25T08:31:19;8.60;99.90
3071;DHT22;1546;47.208;9.038;2022-11-25T08:33:47;8.50;99.90
3071;DHT22;1546;47.208;9.038;2022-11-25T08:36:15;8.40;99.90
3071;DHT22;1546;47.208;9.038;2022-11-25T08:38:44;8.60;99.90
3071;DHT22;1546;47.208;9.038;2022-11-25T08:41:13;8.50;99.90
3071;DHT22;1546;47.208;9.038;2022-11-25T08:43:40;8.70;99.90
3071;DHT22;1546;47.208;9.038;2022-11-25T08:46:09;8.80;99.90
3071;DHT22;1546;47.208;9.038;2022-11-25T08:48:35;9.00;99.90
3071;DHT22;1546;47.208;9.038;2022-11-25T08:51:07;9.00;99.90
3071;DHT22;1546;47.208;9.038;2022-11-25T08:53:36;8.90;99.90
3071;DHT22;1546;47.208;9.038;2022-11-25T08:56:03;9.00;99.90
3071;DHT22;1546;47.208;9.038;2022-11-25T08:58:30;8.70;99.90
3071;DHT22;1546;47.208;9.038;2022-11-25T09:00:56;8.80;99.90
3071;DHT22;1546;47.208;9.038;2022-11-25T09:03:23;9.10;99.90
3071;DHT22;1546;47.208;9.038;2022-11-25T09:05:51;9.30;99.90
3071;DHT22;1546;47.208;9.038;2022-11-25T09:08:19;9.50;99.90
3071;DHT22;1546;47.208;9.038;2022-11-25T09:10:47;9.40;99.90
3071;DHT22;1546;47.208;9.038;2022-11-25T09:13:14;9.30;99.90
3071;DHT22;1546;47.208;9.038;2022-11-25T09:15:41;9.20;99.90
3071;DHT22;1546;47.208;9.038;2022-11-25T09:18:09;9.30;99.90
3071;DHT22;1546;47.208;9.038;2022-11-25T09:20:38;9.60;99.90
3071;DHT22;1546;47.208;9.038;2022-11-25T09:23:06;9.80;99.90
3071;DHT22;1546;47.208;9.038;2022-11-25T09:25:34;9.80;99.90
3071;DHT22;1546;47.208;9.038;2022-11-25T09:28:03;9.60;99.90
3071;DHT22;1546;47.208;9.038;2022-11-25T09:30:30;9.60;99.90
3071;DHT22;1546;47.208;9.038;2022-11-25T09:32:57;9.50;99.90
3071;DHT22;1546;47.208;9.038;2022-11-25T09:35:24;9.50;99.90
3071;DHT22;1546;47.208;9.038;2022-11-25T09:37:51;9.50;99.90
3071;DHT22;1546;47.208;9.038;2022-11-25T09:40:20;9.50;99.90
3071;DHT22;1546;47.208;9.038;2022-11-25T09:42:55;9.60;99.90
3071;DHT22;1546;47.208;9.038;2022-11-25T09:45:48;9.60;99.90
3071;DHT22;1546;47.208;9.038;2022-11-25T09:48:51;9.70;99.90
3071;DHT22;1546;47.208;9.038;2022-11-25T09:51:22;10.00;99.90
3071;DHT22;1546;47.208;9.038;2022-11-25T09:53:52;10.30;99.90
3071;DHT22;1546;47.208;9.038;2022-11-25T09:56:28;10.40;99.90
3071;DHT22;1546;47.208;9.038;2022-11-25T09:59:01;10.50;99.90
3071;DHT22;1546;47.208;9.038;2022-11-25T10:01:40;10.40;99.90
3071;DHT22;1546;47.208;9.038;2022-11-25T10:04:13;10.60;99.90
3071;DHT22;1546;47.208;9.038;2022-11-25T10:06:45;11.00;99.50
3071;DHT22;1546;47.208;9.038;2022-11-25T10:09:17;11.00;99.70
3071;DHT22;1546;47.208;9.038;2022-11-25T10:11:49;11.20;99.90
3071;DHT22;1546;47.208;9.038;2022-11-25T10:14:29;11.60;98.70
3071;DHT22;1546;47.208;9.038;2022-11-25T10:17:03;11.80;97.30
3071;DHT22;1546;47.208;9.038;2022-11-25T10:19:40;11.80;97.10
3071;DHT22;1546;47.208;9.038;2022-11-25T10:22:18;12.00;97.40
3071;DHT22;1546;47.208;9.038;2022-11-25T10:24:46;12.00;96.30
3071;DHT22;1546;47.208;9.038;2022-11-25T10:27:18;12.30;96.60
3071;DHT22;1546;47.208;9.038;2022-11-25T10:29:51;12.60;95.80
3071;DHT22;1546;47.208;9.038;2022-11-25T10:32:22;12.90;95.00
3071;DHT22;1546;47.208;9.038;2022-11-25T10:34:52;13.20;94.40
3071;DHT22;1546;47.208;9.038;2022-11-25T10:37:25;13.70;93.90
3071;DHT22;1546;47.208;9.038;2022-11-25T10:39:53;14.00;93.40
3071;DHT22;1546;47.208;9.038;2022-11-25T10:42:22;14.10;91.70
3071;DHT22;1546;47.208;9.038;2022-11-25T10:44:49;14.00;91.40
3071;DHT22;1546;47.208;9.038;2022-11-25T10:47:36;13.80;91.50
3071;DHT22;1546;47.208;9.038;2022-11-25T10:50:14;13.90;92.00
3071;DHT22;1546;47.208;9.038;2022-11-25T10:52:47;13.80;91.30
3071;DHT22;1546;47.208;9.038;2022-11-25T10:55:16;13.80;91.60
3071;DHT22;1546;47.208;9.038;2022-11-25T10:57:44;13.50;91.10
3071;DHT22;1546;47.208;9.038;2022-11-25T11:00:27;13.00;92.00
3071;DHT22;1546;47.208;9.038;2022-11-25T11:02:57;13.10;93.40
3071;DHT22;1546;47.208;9.038;2022-11-25T11:05:26;13.50;93.10
3071;DHT22;1546;47.208;9.038;2022-11-25T11:08:14;14.10;92.70
3071;DHT22;1546;47.208;9.038;2022-11-25T11:10:42;15.20;92.30
3071;DHT22;1546;47.208;9.038;2022-11-25T11:13:20;15.80;90.30
3071;DHT22;1546;47.208;9.038;2022-11-25T11:15:47;15.70;90.00
3071;DHT22;1546;47.208;9.038;2022-11-25T11:18:23;15.50;89.80
3071;DHT22;1546;47.208;9.038;2022-11-25T11:20:51;15.40;90.00
3071;DHT22;1546;47.208;9.038;2022-11-25T11:23:18;14.90;89.90
3071;DHT22;1546;47.208;9.038;2022-11-25T11:25:55;14.70;91.30
3071;DHT22;1546;47.208;9.038;2022-11-25T11:28:28;14.70;93.00
3071;DHT22;1546;47.208;9.038;2022-11-25T11:30:59;14.90;92.30
3071;DHT22;1546;47.208;9.038;2022-11-25T11:33:35;14.50;92.60
3071;DHT22;1546;47.208;9.038;2022-11-25T11:36:21;14.20;93.00
3071;DHT22;1546;47.208;9.038;2022-11-25T11:38:54;14.10;93.50
3071;DHT22;1546;47.208;9.038;2022-11-25T11:41:32;14.20;93.40
3071;DHT22;1546;47.208;9.038;2022-11-25T11:44:08;14.00;93.40
3071;DHT22;1546;47.208;9.038;2022-11-25T11:46:58;14.30;94.00
3071;DHT22;1546;47.208;9.038;2022-11-25T11:49:44;15.00;93.20
3071;DHT22;1546;47.208;9.038;2022-11-25T11:52:23;15.50;91.50
3071;DHT22;1546;47.208;9.038;2022-11-25T11:54:53;15.60;90.20
3071;DHT22;1546;47.208;9.038;2022-11-25T11:57:31;15.50;90.10
3071;DHT22;1546;47.208;9.038;2022-11-25T12:00:02;16.50;90.20
3071;DHT22;1546;47.208;9.038;2022-11-25T12:02:42;16.80;91.80
3071;DHT22;1546;47.208;9.038;2022-11-25T12:05:17;17.30;87.30
3071;DHT22;1546;47.208;9.038;2022-11-25T12:07:53;17.60;87.30
3071;DHT22;1546;47.208;9.038;2022-11-25T12:10:27;19.50;98.80
3071;DHT22;1546;47.208;9.038;2022-11-25T12:13:03;19.30;96.70
3071;DHT22;1546;47.208;9.038;2022-11-25T12:15:40;19.60;91.60
3071;DHT22;1546;47.208;9.038;2022-11-25T12:20:49;19.90;91.70
3071;DHT22;1546;47.208;9.038;2022-11-25T12:23:23;19.50;92.30
3071;DHT22;1546;47.208;9.038;2022-11-25T12:25:56;18.60;91.80
3071;DHT22;1546;47.208;9.038;2022-11-25T12:31:03;17.40;98.80
3071;DHT22;1546;47.208;9.038;2022-11-25T12:33:42;17.20;98.00
3071;DHT22;1546;47.208;9.038;2022-11-25T12:36:14;15.50;85.00
3071;DHT22;1546;47.208;9.038;2022-11-25T12:38:46;14.30;92.90
3071;DHT22;1546;47.208;9.038;2022-11-25T12:41:27;13.80;93.40
3071;DHT22;1546;47.208;9.038;2022-11-25T12:44:00;13.40;93.10
3071;DHT22;1546;47.208;9.038;2022-11-25T12:46:34;13.10;92.90
3071;DHT22;1546;47.208;9.038;2022-11-25T12:49:05;13.10;92.20
3071;DHT22;1546;47.208;9.038;2022-11-25T12:51:45;13.10;95.60
3071;DHT22;1546;47.208;9.038;2022-11-25T12:54:28;13.00;94.70
3071;DHT22;1546;47.208;9.038;2022-11-25T12:57:19;12.90;95.10
3071;DHT22;1546;47.208;9.038;2022-11-25T13:00:00;12.90;95.30
3071;DHT22;1546;47.208;9.038;2022-11-25T13:02:52;12.90;93.90
3071;DHT22;1546;47.208;9.038;2022-11-25T13:05:46;13.20;92.40
3071;DHT22;1546;47.208;9.038;2022-11-25T13:08:29;12.90;95.30
3071;DHT22;1546;47.208;9.038;2022-11-25T13:11:33;13.40;92.30
3071;DHT22;1546;47.208;9.038;2022-11-25T13:14:17;14.90;95.30
3071;DHT22;1546;47.208;9.038;2022-11-25T13:16:47;13.30;92.40
3071;DHT22;1546;47.208;9.038;2022-11-25T13:19:16;13.20;92.10
3071;DHT22;1546;47.208;9.038;2022-11-25T13:21:58;13.00;92.50
3071;DHT22;1546;47.208;9.038;2022-11-25T13:24:32;13.00;93.10
3071;DHT22;1546;47.208;9.038;2022-11-25T13:27:00;13.10;93.90
3071;DHT22;1546;47.208;9.038;2022-11-25T13:29:57;13.00;94.90
3071;DHT22;1546;47.208;9.038;2022-11-25T13:32:40;12.80;96.40
3071;DHT22;1546;47.208;9.038;2022-11-25T13:35:35;12.70;99.20
3071;DHT22;1546;47.208;9.038;2022-11-25T13:41:23;12.40;98.90
3071;DHT22;1546;47.208;9.038;2022-11-25T13:43:58;12.20;99.10
3071;DHT22;1546;47.208;9.038;2022-11-25T13:46:36;11.80;99.90
3071;DHT22;1546;47.208;9.038;2022-11-25T13:49:04;11.40;99.90
3071;DHT22;1546;47.208;9.038;2022-11-25T13:51:31;11.10;99.90
3071;DHT22;1546;47.208;9.038;2022-11-25T13:54:00;10.70;99.90
3071;DHT22;1546;47.208;9.038;2022-11-25T13:56:33;10.40;99.90
3071;DHT22;1546;47.208;9.038;2022-11-25T13:59:19;10.20;99.90
3071;DHT22;1546;47.208;9.038;2022-11-25T14:08:13;10.00;99.90
3071;DHT22;1546;47.208;9.038;2022-11-25T14:10:44;10.00;99.90
3071;DHT22;1546;47.208;9.038;2022-11-25T14:13:30;9.90;99.90
3071;DHT22;1546;47.208;9.038;2022-11-25T14:16:15;9.80;99.90
3071;DHT22;1546;47.208;9.038;2022-11-25T14:21:52;9.80;99.90
3071;DHT22;1546;47.208;9.038;2022-11-25T14:24:36;9.90;99.90
3071;DHT22;1546;47.208;9.038;2022-11-25T14:27:04;9.90;99.90
3071;DHT22;1546;47.208;9.038;2022-11-25T14:29:42;9.80;99.90
3071;DHT22;1546;47.208;9.038;2022-11-25T14:32:13;9.80;99.90
3071;DHT22;1546;47.208;9.038;2022-11-25T14:34:43;9.70;99.90
3071;DHT22;1546;47.208;9.038;2022-11-25T14:37:15;9.70;99.90
3071;DHT22;1546;47.208;9.038;2022-11-25T14:39:47;9.70;99.90
3071;DHT22;1546;47.208;9.038;2022-11-25T14:42:18;9.70;99.90
3071;DHT22;1546;47.208;9.038;2022-11-25T14:44:50;9.60;99.90
3071;DHT22;1546;47.208;9.038;2022-11-25T14:47:21;9.70;99.90
3071;DHT22;1546;47.208;9.038;2022-11-25T14:49:49;9.60;99.90
3071;DHT22;1546;47.208;9.038;2022-11-25T14:52:21;9.60;99.90
3071;DHT22;1546;47.208;9.038;2022-11-25T14:54:49;9.60;99.90
3071;DHT22;1546;47.208;9.038;2022-11-25T14:57:23;9.60;99.90
3071;DHT22;1546;47.208;9.038;2022-11-25T14:59:53;9.40;99.90
3071;DHT22;1546;47.208;9.038;2022-11-25T15:02:28;9.30;99.90
3071;DHT22;1546;47.208;9.038;2022-11-25T15:05:23;9.30;99.90
3071;DHT22;1546;47.208;9.038;2022-11-25T15:07:59;9.40;99.90
3071;DHT22;1546;47.208;9.038;2022-11-25T15:10:29;8.90;99.90
3071;DHT22;1546;47.208;9.038;2022-11-25T15:12:57;9.20;99.90
3071;DHT22;1546;47.208;9.038;2022-11-25T15:15:26;9.20;99.90
3071;DHT22;1546;47.208;9.038;2022-11-25T15:17:53;9.30;99.90
3071;DHT22;1546;47.208;9.038;2022-11-25T15:20:22;9.20;99.90
3071;DHT22;1546;47.208;9.038;2022-11-25T15:22:51;9.10;99.90
3071;DHT22;1546;47.208;9.038;2022-11-25T15:25:18;9.10;99.90
3071;DHT22;1546;47.208;9.038;2022-11-25T15:27:49;9.40;99.90
3071;DHT22;1546;47.208;9.038;2022-11-25T15:30:19;9.10;99.90
3071;DHT22;1546;47.208;9.038;2022-11-25T15:32:47;9.10;99.90
3071;DHT22;1546;47.208;9.038;2022-11-25T15:35:17;9.10;99.90
3071;DHT22;1546;47.208;9.038;2022-11-25T15:37:46;9.10;99.90
3071;DHT22;1546;47.208;9.038;2022-11-25T15:40:33;9.10;99.90
3071;DHT22;1546;47.208;9.038;2022-11-25T15:43:03;9.10;99.90
3071;DHT22;1546;47.208;9.038;2022-11-25T15:45:36;9.30;99.90
3071;DHT22;1546;47.208;9.038;2022-11-25T15:48:15;9.00;99.90
3071;DHT22;1546;47.208;9.038;2022-11-25T15:50:42;9.10;99.90
3071;DHT22;1546;47.208;9.038;2022-11-25T15:53:19;9.10;99.90
3071;DHT22;1546;47.208;9.038;2022-11-25T15:55:49;9.10;99.90
3071;DHT22;1546;47.208;9.038;2022-11-25T15:58:19;9.00;99.90
3071;DHT22;1546;47.208;9.038;2022-11-25T16:00:59;9.10;99.90
3071;DHT22;1546;47.208;9.038;2022-11-25T16:03:28;9.10;99.90
3071;DHT22;1546;47.208;9.038;2022-11-25T16:05:57;9.10;99.90
3071;DHT22;1546;47.208;9.038;2022-11-25T16:08:31;9.20;99.90
3071;DHT22;1546;47.208;9.038;2022-11-25T16:13:36;9.20;99.90
3071;DHT22;1546;47.208;9.038;2022-11-25T16:16:11;9.40;99.90
3071;DHT22;1546;47.208;9.038;2022-11-25T16:21:11;9.10;99.90
3071;DHT22;1546;47.208;9.038;2022-11-25T16:23:41;9.20;99.90
3071;DHT22;1546;47.208;9.038;2022-11-25T16:26:14;9.20;99.90
3071;DHT22;1546;47.208;9.038;2022-11-25T16:28:49;9.20;99.90
3071;DHT22;1546;47.208;9.038;2022-11-25T16:31:17;9.30;99.90
3071;DHT22;1546;47.208;9.038;2022-11-25T16:33:45;9.40;99.90
3071;DHT22;1546;47.208;9.038;2022-11-25T16:36:12;9.30;99.90
3071;DHT22;1546;47.208;9.038;2022-11-25T16:38:39;9.30;99.90
3071;DHT22;1546;47.208;9.038;2022-11-25T16:41:09;9.40;99.90
3071;DHT22;1546;47.208;9.038;2022-11-25T16:43:37;9.30;99.90
3071;DHT22;1546;47.208;9.038;2022-11-25T16:46:04;9.20;99.90
3071;DHT22;1546;47.208;9.038;2022-11-25T16:48:31;9.20;99.90
3071;DHT22;1546;47.208;9.038;2022-11-25T16:51:00;9.30;99.90
3071;DHT22;1546;47.208;9.038;2022-11-25T16:53:26;9.40;99.90
3071;DHT22;1546;47.208;9.038;2022-11-25T16:55:53;9.10;99.90
3071;DHT22;1546;47.208;9.038;2022-11-25T16:58:22;8.90;99.90
3071;DHT22;1546;47.208;9.038;2022-11-25T17:00:51;9.10;99.90
3071;DHT22;1546;47.208;9.038;2022-11-25T17:03:19;8.80;99.90